Time;durP1;ratioP1;P1;durP2;ratioP2;P2;SDS_P1;SDS_P2;PMS_P1;PMS_P2;Temp;Humidity;BMP_temperature;BMP_pressure;BME280_temperature;BME280_humidity;BME280_pressure;Samples;Min_cycle;Max_cycle;Signal;HPM_P1;HPM_P2
2023/10/06 00:01:44;;;;;;;2.35;0.30;;;;;;;16.61;100.00;100550.28;5011859;28;20040;-86
2023/10/06 00:04:15;;;;;;;2.33;0.60;;;;;;;16.59;100.00;100544.28;5032162;28;20029;-86
2023/10/06 00:06:45;;;;;;;1.88;0.38;;;;;;;16.58;100.00;100546.13;5014186;28;20068;-91
2023/10/06 00:09:30;;;;;;;4.30;0.52;;;;;;;16.59;100.00;100538.94;5042335;28;20108;-91
2023/10/06 00:11:56;;;;;;;5.93;0.50;;;;;;;16.53;100.00;100543.16;5043509;28;20046;-90
2023/10/06 00:17:11;;;;;;;3.88;0.43;;;;;;;16.55;100.00;100542.97;5037874;28;20033;-86
2023/10/06 00:19:39;;;;;;;3.20;0.60;;;;;;;16.56;100.00;100541.97;5018709;28;20123;-85
2023/10/06 00:24:58;;;;;;;3.53;0.50;;;;;;;16.58;100.00;100537.31;5054199;28;20033;-86
2023/10/06 00:27:24;;;;;;;3.35;0.50;;;;;;;16.59;100.00;100549.63;5042080;28;20045;-90
2023/10/06 00:29:54;;;;;;;1.48;0.40;;;;;;;16.58;100.00;100548.78;5021565;28;20048;-91
2023/10/06 00:32:26;;;;;;;1.98;0.35;;;;;;;16.58;100.00;100543.44;5028746;28;20151;-86
2023/10/06 00:35:14;;;;;;;2.50;0.45;;;;;;;16.63;100.00;100542.91;5034835;28;20033;-86
2023/10/06 00:37:41;;;;;;;1.10;0.30;;;;;;;16.56;100.00;100547.31;5032563;28;20033;-86
2023/10/06 00:40:19;;;;;;;5.57;0.80;;;;;;;16.56;100.00;100540.13;5037436;28;20032;-86
2023/10/06 00:42:59;;;;;;;1.08;0.40;;;;;;;16.60;100.00;100546.78;5018089;28;20123;-86
2023/10/06 00:45:25;;;;;;;3.17;0.55;;;;;;;16.54;100.00;100547.50;5016343;28;20099;-86
2023/10/06 00:47:55;;;;;;;5.15;0.50;;;;;;;16.57;100.00;100547.13;5031056;28;20036;-86
2023/10/06 00:50:23;;;;;;;3.97;0.43;;;;;;;16.57;100.00;100547.13;5049963;28;20036;-86
2023/10/06 00:52:50;;;;;;;1.30;0.60;;;;;;;16.56;100.00;100555.31;5051692;28;20046;-86
2023/10/06 00:55:19;;;;;;;2.33;0.52;;;;;;;16.57;100.00;100548.97;5035386;28;20037;-86
2023/10/06 00:57:53;;;;;;;1.17;0.40;;;;;;;16.54;100.00;100552.84;5022655;28;20041;-90
2023/10/06 01:00:20;;;;;;;2.80;0.43;;;;;;;16.55;100.00;100551.81;5025150;28;20039;-90
2023/10/06 01:02:47;;;;;;;2.45;0.40;;;;;;;16.51;100.00;100552.38;5037074;28;20036;-86
2023/10/06 01:05:16;;;;;;;2.65;0.43;;;;;;;16.55;100.00;100557.16;5034500;28;20131;-86
2023/10/06 01:07:45;;;;;;;1.80;0.40;;;;;;;16.57;100.00;100548.97;5012794;28;20495;-86
2023/10/06 01:10:17;;;;;;;6.88;0.40;;;;;;;16.56;100.00;100547.31;5025631;28;20059;-85
2023/10/06 01:12:50;;;;;;;2.75;0.40;;;;;;;16.54;100.00;100552.00;5029864;28;20115;-86
2023/10/06 01:15:18;;;;;;;1.23;0.35;;;;;;;16.52;100.00;100546.84;5048579;28;20056;-86
2023/10/06 01:17:47;;;;;;;1.63;0.52;;;;;;;16.51;100.00;100550.53;5036166;28;21692;-86
2023/10/06 01:20:35;;;;;;;2.88;0.80;;;;;;;16.55;100.00;100554.47;5037038;28;20063;-86
2023/10/06 01:23:02;;;;;;;2.20;0.50;;;;;;;16.52;100.00;100546.00;5036803;28;20033;-86
2023/10/06 01:25:34;;;;;;;1.88;0.40;;;;;;;16.52;100.00;100540.66;5020907;28;20115;-86
2023/10/06 01:28:03;;;;;;;1.15;0.50;;;;;;;16.50;100.00;100532.84;5030365;28;20122;-90
2023/10/06 01:30:29;;;;;;;1.38;0.50;;;;;;;16.54;100.00;100542.16;5018781;28;20043;-90
2023/10/06 01:32:58;;;;;;;2.60;0.50;;;;;;;16.55;100.00;100532.31;5032203;28;20044;-86
2023/10/06 01:35:24;;;;;;;2.88;0.60;;;;;;;16.55;100.00;100540.31;5031319;28;20477;-86
2023/10/06 01:38:00;;;;;;;6.38;0.77;;;;;;;16.55;100.00;100532.31;5029161;28;20040;-91
2023/10/06 01:42:52;;;;;;;3.35;0.60;;;;;;;16.55;100.00;100534.97;5038879;28;20450;-86
2023/10/06 01:45:21;;;;;;;2.03;0.57;;;;;;;16.55;100.00;100532.31;5026758;28;20112;-86
2023/10/06 01:47:56;;;;;;;1.67;0.32;;;;;;;16.56;100.00;100532.13;5026178;28;20086;-89
2023/10/06 01:50:28;;;;;;;1.92;0.45;;;;;;;16.57;100.00;100530.28;5035302;28;20029;-91
2023/10/06 01:52:57;;;;;;;3.25;0.50;;;;;;;16.57;100.00;100533.78;5035604;28;20040;-90
2023/10/06 01:55:24;;;;;;;1.55;0.57;;;;;;;16.57;100.00;100527.63;5067151;28;20033;-90
2023/10/06 01:57:54;;;;;;;3.15;0.38;;;;;;;16.60;100.00;100527.25;5051751;28;20111;-87
2023/10/06 02:00:31;;;;;;;3.83;0.50;;;;;;;16.60;100.00;100529.94;5024120;28;20036;-85
2023/10/06 02:02:57;;;;;;;2.63;0.50;;;;;;;16.61;100.00;100526.25;5022510;28;20032;-86
2023/10/06 02:05:23;;;;;;;1.40;0.45;;;;;;;16.58;100.00;100516.75;5026283;28;20424;-85
2023/10/06 02:07:48;;;;;;;3.03;0.68;;;;;;;16.59;100.00;100521.13;5036112;28;20040;-90
2023/10/06 02:10:15;;;;;;;1.35;0.40;;;;;;;16.60;100.00;100529.94;5031703;28;20024;-90
2023/10/06 02:12:42;;;;;;;2.38;0.40;;;;;;;16.64;100.00;100522.38;5021851;28;20040;-90
2023/10/06 02:15:11;;;;;;;1.23;0.38;;;;;;;16.64;100.00;100515.22;5012760;28;20032;-90
2023/10/06 02:17:40;;;;;;;2.63;0.60;;;;;;;16.68;100.00;100511.16;5050460;28;20044;-91
2023/10/06 02:22:52;;;;;;;1.65;0.43;;;;;;;16.65;100.00;100518.69;5034789;28;20389;-90
2023/10/06 02:25:22;;;;;;;2.33;0.50;;;;;;;16.70;100.00;100525.16;5020737;28;20040;-91
2023/10/06 02:27:50;;;;;;;1.73;0.45;;;;;;;16.64;100.00;100517.91;5055407;28;20090;-86
2023/10/06 02:30:25;;;;;;;4.50;0.30;;;;;;;16.69;100.00;100523.50;5041618;28;20115;-86
2023/10/06 02:32:54;;;;;;;2.75;0.40;;;;;;;16.69;100.00;100520.81;5041699;28;20035;-90
2023/10/06 02:35:19;;;;;;;2.50;0.63;;;;;;;16.69;100.00;100520.81;5038371;28;20119;-90
2023/10/06 02:37:46;;;;;;;2.13;0.30;;;;;;;16.70;100.00;100525.16;5040856;28;20473;-86
2023/10/06 02:40:12;;;;;;;1.70;0.30;;;;;;;16.73;100.00;100521.28;5022830;28;20807;-86
2023/10/06 02:42:53;;;;;;;2.42;0.30;;;;;;;16.80;100.00;100519.53;5005398;28;20036;-87
2023/10/06 02:45:21;;;;;;;0.45;0.20;;;;;;;16.74;100.00;100518.44;5020879;28;20177;-86
2023/10/06 02:47:47;;;;;;;0.50;0.20;;;;;;;16.75;100.00;100524.63;5005484;28;20555;-89
2023/10/06 02:50:19;;;;;;;1.23;0.20;;;;;;;16.77;100.00;100511.09;5005197;28;20507;-90
2023/10/06 02:52:46;;;;;;;0.90;0.10;;;;;;;16.79;100.00;100517.88;5027434;28;20035;-90
2023/10/06 02:55:14;;;;;;;3.20;0.38;;;;;;;16.80;100.00;100529.41;5024853;28;20036;-90
2023/10/06 02:57:50;;;;;;;2.30;0.35;;;;;;;16.79;100.00;100530.41;5017057;28;20036;-90
2023/10/06 03:00:32;;;;;;;1.05;0.40;;;;;;;16.81;100.00;100525.72;5020529;28;20036;-90
2023/10/06 03:03:12;;;;;;;0.85;0.30;;;;;;;16.79;100.00;100525.06;5023703;28;20036;-86
2023/10/06 03:05:39;;;;;;;1.40;0.30;;;;;;;16.82;100.00;100524.69;5018342;28;20148;-86
2023/10/06 03:08:08;;;;;;;2.00;0.35;;;;;;;16.82;100.00;100533.53;5017174;28;20780;-86
2023/10/06 03:10:42;;;;;;;3.25;0.20;;;;;;;16.85;100.00;100535.03;5026669;28;20072;-85
2023/10/06 03:13:16;;;;;;;1.75;0.20;;;;;;;16.88;100.00;100529.31;5050244;28;20039;-86
2023/10/06 03:15:45;;;;;;;5.28;0.47;;;;;;;16.89;100.00;100533.63;5022051;28;20435;-86
2023/10/06 03:18:16;;;;;;;4.28;0.40;;;;;;;16.90;100.00;100531.81;5045788;28;20036;-86
2023/10/06 03:28:49;;;;;;;4.97;0.30;;;;;;;16.85;100.00;100533.16;5057666;28;20032;-86
2023/10/06 03:33:48;;;;;;;1.25;0.30;;;;;;;16.91;100.00;100520.09;5037223;28;20171;-87
2023/10/06 03:36:34;;;;;;;1.02;0.40;;;;;;;16.88;100.00;100523.13;5054762;28;20056;-86
2023/10/06 03:39:06;;;;;;;2.10;0.55;;;;;;;16.87;100.00;100522.31;5024999;28;20494;-86
2023/10/06 03:41:37;;;;;;;3.97;0.38;;;;;;;16.88;100.00;100523.97;5032252;28;20025;-86
2023/10/06 03:44:04;;;;;;;3.10;0.30;;;;;;;16.91;100.00;100520.94;5009655;28;20439;-86
2023/10/06 03:46:37;;;;;;;3.70;0.60;;;;;;;16.86;100.00;100518.81;5035238;28;20041;-86
2023/10/06 03:49:04;;;;;;;2.30;0.40;;;;;;;16.89;100.00;100519.44;5052620;28;20032;-86
2023/10/06 03:51:37;;;;;;;2.03;0.30;;;;;;;16.88;100.00;100523.13;5031408;28;20037;-86
2023/10/06 03:54:04;;;;;;;4.07;0.40;;;;;;;16.93;100.00;100518.09;5054345;28;20032;-87
2023/10/06 03:56:31;;;;;;;5.20;0.32;;;;;;;16.94;100.00;100514.38;5049688;28;20032;-90
2023/10/06 03:58:59;;;;;;;3.92;0.50;;;;;;;16.90;100.00;100511.25;5051336;28;20404;-90
2023/10/06 04:01:26;;;;;;;3.70;0.30;;;;;;;16.92;100.00;100505.72;5025492;28;20028;-87
2023/10/06 04:03:58;;;;;;;2.67;0.40;;;;;;;16.97;100.00;100514.84;5040522;28;20040;-86
2023/10/06 04:06:27;;;;;;;1.08;0.47;;;;;;;16.96;100.00;100513.19;5047072;28;20057;-86
2023/10/06 04:08:56;;;;;;;2.30;0.40;;;;;;;16.94;100.00;100517.06;5047808;28;20024;-86
2023/10/06 04:11:22;;;;;;;3.33;0.52;;;;;;;16.93;100.00;100516.22;5030873;28;20041;-86
2023/10/06 04:13:48;;;;;;;1.90;0.50;;;;;;;16.95;100.00;100519.53;5065786;28;20051;-86
2023/10/06 04:16:14;;;;;;;1.45;0.30;;;;;;;16.98;100.00;100523.69;5023184;28;20086;-87
2023/10/06 04:18:41;;;;;;;2.88;0.52;;;;;;;16.98;100.00;100519.16;5048424;28;20424;-86
2023/10/06 04:21:11;;;;;;;4.55;0.70;;;;;;;16.96;100.00;100517.72;5041849;28;20036;-86
2023/10/06 04:23:41;;;;;;;2.55;0.60;;;;;;;16.99;100.00;100522.69;5034125;28;20108;-86
2023/10/06 04:26:13;;;;;;;2.90;0.60;;;;;;;17.05;100.00;100519.28;5017766;28;20095;-86
2023/10/06 04:28:39;;;;;;;4.05;0.82;;;;;;;17.00;100.00;100524.31;5018657;28;20040;-86
2023/10/06 04:31:05;;;;;;;5.40;0.52;;;;;;;17.00;100.00;100521.66;5005466;28;20090;-86
2023/10/06 04:33:32;;;;;;;3.70;0.80;;;;;;;17.04;100.00;100519.47;5048218;28;20029;-86
2023/10/06 04:36:07;;;;;;;5.18;0.65;;;;;;;17.04;100.00;100525.59;5013612;28;20167;-86
2023/10/06 04:38:38;;;;;;;4.50;0.85;;;;;;;17.08;100.00;100518.94;5035621;28;20041;-90
2023/10/06 04:41:08;;;;;;;4.45;0.60;;;;;;;17.06;100.00;100520.91;5045035;28;20056;-90
2023/10/06 04:43:35;;;;;;;3.28;0.73;;;;;;;17.08;100.00;100515.41;5018000;28;20036;-86
2023/10/06 04:46:05;;;;;;;5.07;0.80;;;;;;;17.09;100.00;100527.75;5020253;28;20072;-86
2023/10/06 04:48:32;;;;;;;3.47;1.23;;;;;;;17.11;100.00;100523.06;5026977;28;20032;-86
2023/10/06 04:50:58;;;;;;;3.47;0.77;;;;;;;17.13;100.00;100525.53;5043738;28;20112;-86
2023/10/06 04:53:24;;;;;;;4.45;0.50;;;;;;;17.11;100.00;100531.06;5020870;28;20115;-90
2023/10/06 04:55:51;;;;;;;4.68;0.90;;;;;;;17.11;100.00;100526.56;5052532;28;20032;-90
2023/10/06 04:58:18;;;;;;;6.80;0.88;;;;;;;17.11;100.00;100526.56;5019849;28;20054;-86
2023/10/06 05:00:52;;;;;;;4.05;0.70;;;;;;;17.13;100.00;100533.56;5039217;28;20052;-85
2023/10/06 05:03:18;;;;;;;2.47;0.70;;;;;;;17.14;100.00;100540.56;5035115;28;20115;-86
2023/10/06 05:05:44;;;;;;;3.47;0.77;;;;;;;17.14;100.00;100535.22;5051696;28;20095;-86
2023/10/06 05:08:09;;;;;;;4.80;0.90;;;;;;;17.14;100.00;100541.38;5018178;28;20115;-91
2023/10/06 05:10:39;;;;;;;4.45;0.82;;;;;;;17.15;100.00;100539.53;5074316;28;20688;-91
2023/10/06 05:13:06;;;;;;;3.08;0.85;;;;;;;17.13;100.00;100546.91;5013753;28;20390;-91
2023/10/06 05:15:34;;;;;;;2.60;0.68;;;;;;;17.13;100.00;100550.41;5017134;28;20044;-91
2023/10/06 05:18:03;;;;;;;6.35;0.88;;;;;;;17.16;100.00;100541.19;5008946;28;20029;-86
2023/10/06 05:20:33;;;;;;;6.28;0.88;;;;;;;17.18;100.00;100555.19;5034023;28;20043;-86
2023/10/06 05:23:09;;;;;;;6.65;0.90;;;;;;;17.16;100.00;100549.19;5019925;28;20042;-86
2023/10/06 05:25:36;;;;;;;5.07;0.75;;;;;;;17.14;100.00;100543.25;5045355;28;20489;-86
2023/10/06 05:28:04;;;;;;;3.40;0.70;;;;;;;17.15;100.00;100548.41;5031642;28;20055;-91
2023/10/06 05:30:30;;;;;;;7.05;1.30;;;;;;;17.14;100.00;100546.72;5017479;28;20040;-92
2023/10/06 05:32:57;;;;;;;7.90;1.10;;;;;;;17.15;100.00;100550.22;5019142;28;20040;-86
2023/10/06 05:35:28;;;;;;;6.18;0.85;;;;;;;17.20;100.00;100550.50;5033107;28;20033;-86
2023/10/06 05:37:54;;;;;;;5.90;1.27;;;;;;;17.15;100.00;100548.41;5052454;28;20070;-86
2023/10/06 05:40:20;;;;;;;7.97;1.25;;;;;;;17.16;100.00;100560.72;5049993;28;20052;-86
2023/10/06 05:42:49;;;;;;;8.68;1.33;;;;;;;17.22;100.00;100553.81;5036240;28;20032;-85
2023/10/06 05:45:18;;;;;;;5.85;0.93;;;;;;;17.17;100.00;100554.34;5046420;28;20490;-86
2023/10/06 05:47:54;;;;;;;6.32;1.30;;;;;;;17.21;100.00;100558.34;5010352;28;20068;-85
2023/10/06 05:50:28;;;;;;;7.28;1.70;;;;;;;17.21;100.00;100560.16;5015223;28;20128;-85
2023/10/06 05:52:57;;;;;;;7.80;2.08;;;;;;;17.21;100.00;100569.03;5054501;28;20536;-86
2023/10/06 05:55:30;;;;;;;6.15;1.30;;;;;;;17.22;100.00;100569.81;5033734;28;20123;-86
2023/10/06 05:57:58;;;;;;;15.30;2.28;;;;;;;17.21;100.00;100568.19;5049295;28;20489;-86
2023/10/06 06:00:30;;;;;;;7.35;1.52;;;;;;;17.19;100.00;100576.38;5046206;28;20021;-86
2023/10/06 06:02:59;;;;;;;8.48;1.50;;;;;;;17.23;100.00;100574.19;5032003;28;20064;-85
2023/10/06 06:05:29;;;;;;;9.07;1.73;;;;;;;17.21;100.00;100570.84;5067430;28;20393;-86
2023/10/06 06:07:59;;;;;;;11.52;1.50;;;;;;;17.26;100.00;100575.63;5034812;28;20028;-85
2023/10/06 06:10:29;;;;;;;9.88;1.63;;;;;;;17.22;100.00;100573.34;5016794;28;20063;-85
2023/10/06 06:13:00;;;;;;;4.13;1.08;;;;;;;17.23;100.00;100571.50;5033832;28;20036;-86
2023/10/06 06:15:26;;;;;;;6.30;1.30;;;;;;;17.19;100.00;100580.88;5032531;28;20090;-86
2023/10/06 06:17:58;;;;;;;12.00;1.67;;;;;;;17.21;100.00;100579.69;5012220;28;20029;-91
2023/10/06 06:20:25;;;;;;;7.88;1.75;;;;;;;17.22;100.00;100568.00;5032710;28;20027;-92
2023/10/06 06:23:02;;;;;;;7.72;1.45;;;;;;;17.21;100.00;100574.38;5018558;28;20072;-91
2023/10/06 06:25:31;;;;;;;9.15;1.80;;;;;;;17.26;100.00;100575.63;5034496;28;20032;-91
2023/10/06 06:27:59;;;;;;;7.80;1.65;;;;;;;17.22;100.00;100576.00;4993034;28;20049;-86
2023/10/06 06:30:25;;;;;;;11.35;1.60;;;;;;;17.22;100.00;100577.84;5008814;28;20501;-85
2023/10/06 06:32:55;;;;;;;7.68;1.67;;;;;;;17.25;100.00;100582.81;4995705;28;20171;-90
2023/10/06 06:35:23;;;;;;;8.00;1.80;;;;;;;17.27;100.00;100578.13;5011214;28;20056;-90
2023/10/06 06:37:51;;;;;;;5.32;1.45;;;;;;;17.26;100.00;100579.16;5009858;28;20315;-86
2023/10/06 06:40:20;;;;;;;5.63;1.60;;;;;;;17.29;100.00;100584.13;4984749;28;20176;-86
2023/10/06 06:42:48;;;;;;;10.77;1.95;;;;;;;17.25;100.00;100593.50;5008597;28;20026;-85
2023/10/06 06:45:14;;;;;;;9.23;2.33;;;;;;;17.24;100.00;100599.88;5021392;28;20029;-86
2023/10/06 06:47:44;;;;;;;15.40;2.03;;;;;;;17.25;100.00;100592.69;5023099;28;20061;-86
2023/10/06 06:50:13;;;;;;;7.60;1.60;;;;;;;17.25;100.00;100590.03;5008715;28;20066;-86
2023/10/06 06:52:42;;;;;;;7.30;1.80;;;;;;;17.29;100.00;100591.28;4991521;28;20485;-91
2023/10/06 06:55:12;;;;;;;9.50;1.67;;;;;;;17.27;100.00;100590.63;5011660;28;20056;-92
2023/10/06 06:57:48;;;;;;;11.15;2.40;;;;;;;17.32;100.00;100594.44;5000364;28;20036;-90
2023/10/06 07:00:16;;;;;;;9.88;1.95;;;;;;;17.29;100.00;100599.31;5021118;28;20096;-90
2023/10/06 07:02:47;;;;;;;6.78;1.77;;;;;;;17.29;100.00;100594.81;5007237;28;20094;-90
2023/10/06 07:05:14;;;;;;;10.50;1.58;;;;;;;17.27;100.00;100593.31;4993024;28;20481;-90
2023/10/06 07:07:43;;;;;;;9.50;1.60;;;;;;;17.27;100.00;100601.31;5020369;28;20087;-86
2023/10/06 07:10:14;;;;;;;10.35;1.88;;;;;;;17.32;100.00;100606.94;5023883;28;20061;-85
2023/10/06 07:12:44;;;;;;;6.35;1.63;;;;;;;17.30;100.00;100604.47;4998931;28;20549;-86
2023/10/06 07:15:17;;;;;;;5.00;1.60;;;;;;;17.29;100.00;100607.31;4995440;28;20026;-86
2023/10/06 07:17:51;;;;;;;8.57;1.92;;;;;;;17.32;100.00;100612.28;5004800;28;20044;-86
2023/10/06 07:20:20;;;;;;;9.10;1.40;;;;;;;17.30;100.00;100608.97;4991621;28;20030;-86
2023/10/06 07:22:46;;;;;;;6.55;1.17;;;;;;;17.28;100.00;100606.47;4998191;28;20037;-89
2023/10/06 07:25:15;;;;;;;11.77;2.00;;;;;;;17.30;100.00;100611.63;5005581;28;20092;-89
2023/10/06 07:27:43;;;;;;;9.60;1.30;;;;;;;17.29;100.00;100613.50;5009553;28;20060;-89
2023/10/06 07:30:10;;;;;;;6.47;0.90;;;;;;;17.27;100.00;100620.03;5016377;28;20136;-89
2023/10/06 07:32:42;;;;;;;5.57;1.77;;;;;;;17.31;100.00;100613.31;5022916;28;20085;-86
2023/10/06 07:35:17;;;;;;;5.50;1.30;;;;;;;17.31;100.00;100616.78;4985121;28;20041;-86
2023/10/06 07:37:49;;;;;;;3.70;1.08;;;;;;;17.31;100.00;100618.66;4999454;28;20402;-85
2023/10/06 07:40:21;;;;;;;8.65;1.13;;;;;;;17.31;100.00;100627.47;5021364;28;20030;-86
2023/10/06 07:42:51;;;;;;;11.10;1.05;;;;;;;17.35;100.00;100626.13;4994495;28;22043;-85
2023/10/06 07:45:18;;;;;;;5.45;1.00;;;;;;;17.32;100.00;100628.31;4984297;28;20041;-86
2023/10/06 07:47:45;;;;;;;6.45;1.35;;;;;;;17.33;100.00;100633.47;4990059;28;20057;-85
2023/10/06 07:50:15;;;;;;;5.60;1.30;;;;;;;17.35;100.00;100630.63;4989657;28;20439;-86
2023/10/06 07:52:48;;;;;;;3.15;1.50;;;;;;;17.35;100.00;100634.13;5003537;28;20119;-85
2023/10/06 07:55:16;;;;;;;8.82;1.48;;;;;;;17.34;100.00;100637.78;5017736;28;20041;-86
2023/10/06 07:57:47;;;;;;;6.50;0.95;;;;;;;17.34;100.00;100645.81;5003643;28;20041;-86
2023/10/06 08:00:27;;;;;;;4.88;1.15;;;;;;;17.38;100.00;100648.94;5029930;28;20080;-86
2023/10/06 08:02:58;;;;;;;6.07;1.23;;;;;;;17.40;100.00;100648.78;4958846;28;20394;-86
2023/10/06 08:05:24;;;;;;;4.40;1.00;;;;;;;17.37;100.00;100652.66;4992831;28;20381;-90
2023/10/06 08:07:52;;;;;;;4.78;0.98;;;;;;;17.37;100.00;100647.31;5000956;28;20065;-86
2023/10/06 08:10:18;;;;;;;6.68;1.15;;;;;;;17.39;100.00;100653.28;5007063;28;20038;-86
2023/10/06 08:12:52;;;;;;;6.45;1.00;;;;;;;17.46;100.00;100659.56;4997702;28;20428;-86
2023/10/06 08:15:21;;;;;;;7.43;0.95;;;;;;;17.47;100.00;100661.19;5006092;28;20046;-86
2023/10/06 08:17:52;;;;;;;5.63;1.25;;;;;;;17.52;100.00;100665.19;5006250;28;20034;-87
2023/10/06 08:20:22;;;;;;;4.90;0.90;;;;;;;17.53;100.00;100677.53;5008791;28;20090;-87
2023/10/06 08:22:49;;;;;;;9.55;1.30;;;;;;;17.53;100.00;100675.69;5017509;28;20038;-86
2023/10/06 08:25:18;;;;;;;4.85;1.15;;;;;;;17.55;100.00;100672.81;5004270;28;20025;-86
2023/10/06 08:27:46;;;;;;;5.13;0.95;;;;;;;17.56;100.00;100669.97;4996800;28;20528;-87
2023/10/06 08:30:16;;;;;;;5.82;0.95;;;;;;;17.57;100.00;100682.31;5014094;28;20036;-87
2023/10/06 08:32:44;;;;;;;4.97;0.95;;;;;;;17.54;100.00;100681.84;4994396;28;20485;-86
2023/10/06 08:35:13;;;;;;;10.20;1.27;;;;;;;17.45;100.00;100687.31;5012112;28;20080;-86
2023/10/06 08:37:43;;;;;;;4.05;0.70;;;;;;;17.51;100.00;100695.56;5012145;28;20041;-87
2023/10/06 08:40:16;;;;;;;5.10;1.02;;;;;;;17.42;100.00;100690.34;5008952;28;20042;-86
2023/10/06 08:43:08;;;;;;;4.07;0.80;;;;;;;17.45;100.00;100702.50;5013172;28;20056;-85
2023/10/06 08:45:41;;;;;;;2.30;0.80;;;;;;;17.44;100.00;100706.19;5021081;28;20053;-86
2023/10/06 08:48:10;;;;;;;3.95;0.80;;;;;;;17.38;100.00;100704.22;4994670;28;20497;-90
2023/10/06 08:50:37;;;;;;;6.60;0.88;;;;;;;17.36;100.00;100699.91;4997061;28;20478;-90
2023/10/06 08:53:05;;;;;;;2.85;0.77;;;;;;;17.38;100.00;100701.56;5000546;28;20433;-87
2023/10/06 08:55:31;;;;;;;1.95;0.60;;;;;;;17.39;100.00;100695.22;5025622;28;20041;-86
2023/10/06 08:58:00;;;;;;;2.85;0.88;;;;;;;17.45;100.00;100686.47;5008413;28;20103;-86
2023/10/06 09:00:31;;;;;;;1.65;0.50;;;;;;;17.47;100.00;100695.13;5021582;28;20022;-86
2023/10/06 09:03:03;;;;;;;4.15;0.95;;;;;;;17.50;100.00;100681.41;5025451;28;20087;-90
2023/10/06 09:05:30;;;;;;;1.75;0.50;;;;;;;17.58;100.00;100688.50;4996606;28;20124;-89
2023/10/06 09:08:05;;;;;;;2.72;0.95;;;;;;;17.67;100.00;100687.38;4997401;28;20084;-86
2023/10/06 09:10:36;;;;;;;1.67;0.88;;;;;;;17.72;100.00;100698.34;4993214;28;20053;-87
2023/10/06 09:13:07;;;;;;;2.20;0.68;;;;;;;17.70;100.00;100703.03;5027641;28;20030;-86
2023/10/06 09:15:37;;;;;;;3.17;0.40;;;;;;;17.72;100.00;100703.69;5001539;28;20378;-86
2023/10/06 09:18:24;;;;;;;5.03;0.73;;;;;;;17.78;100.00;100702.13;4996011;28;20128;-87
2023/10/06 09:20:50;;;;;;;3.80;0.52;;;;;;;17.78;100.00;100694.09;5006078;28;20038;-87
2023/10/06 09:23:29;;;;;;;3.97;0.90;;;;;;;17.82;100.00;100695.38;5013917;28;20033;-89
2023/10/06 09:25:55;;;;;;;5.75;3.00;;;;;;;17.80;100.00;100699.25;5029006;28;20071;-88
2023/10/06 09:28:21;;;;;;;4.63;0.32;;;;;;;17.82;100.00;100703.38;5034000;28;20036;-86
2023/10/06 09:30:57;;;;;;;2.20;0.50;;;;;;;17.91;100.00;100693.44;5046041;28;20048;-86
2023/10/06 09:33:26;;;;;;;3.20;0.57;;;;;;;17.91;100.00;100696.09;5050615;28;20029;-89
2023/10/06 09:36:08;;;;;;;3.13;0.85;;;;;;;17.97;100.00;100697.19;5053464;28;20036;-89
2023/10/06 09:38:39;;;;;;;1.50;0.60;;;;;;;17.98;100.00;100704.22;5020682;28;20112;-90
2023/10/06 09:41:07;;;;;;;5.90;0.82;;;;;;;17.94;100.00;100705.59;5016181;28;20028;-88
2023/10/06 09:43:40;;;;;;;2.58;0.50;;;;;;;17.97;100.00;100703.38;5029440;28;20383;-86
2023/10/06 09:46:13;;;;;;;3.20;0.50;;;;;;;17.99;100.00;100708.53;5029313;28;20210;-86
2023/10/06 09:48:45;;;;;;;0.82;0.52;;;;;;;18.00;100.00;100706.72;5031927;28;20507;-90
2023/10/06 09:51:12;;;;;;;1.50;0.43;;;;;;;18.00;100.00;100704.03;5034994;28;20033;-90
2023/10/06 09:53:43;;;;;;;5.78;0.50;;;;;;;18.01;100.00;100694.97;5039786;28;20033;-89
2023/10/06 09:56:12;;;;;;;2.38;0.50;;;;;;;18.03;100.00;100707.13;5022132;28;20135;-89
2023/10/06 09:58:57;;;;;;;3.22;0.32;;;;;;;18.12;100.00;100704.41;5043639;28;20039;-86
2023/10/06 10:01:26;;;;;;;4.22;0.40;;;;;;;18.18;100.00;100715.19;5029590;28;20036;-86
2023/10/06 10:03:58;;;;;;;4.35;0.40;;;;;;;18.28;100.00;100717.56;5029764;28;20060;-74
2023/10/06 10:06:25;;;;;;;2.78;0.40;;;;;;;18.33;100.00;100709.78;5048696;28;20028;-86
2023/10/06 10:08:51;;;;;;;2.92;0.47;;;;;;;18.38;100.00;100716.41;5015986;28;20496;-85
2023/10/06 10:11:28;;;;;;;3.72;0.40;;;;;;;18.42;100.00;100720.34;5017894;28;20032;-87
2023/10/06 10:14:36;;;;;;;3.92;0.50;;;;;;;18.43;100.00;100719.34;5034174;28;20044;-90
2023/10/06 10:17:29;;;;;;;2.72;0.50;;;;;;;18.40;100.00;100712.53;5046160;28;20033;-85
2023/10/06 10:19:55;;;;;;;2.03;0.55;;;;;;;18.37;100.00;100712.06;5026426;28;20040;-86
2023/10/06 10:22:21;;;;;;;1.40;0.40;;;;;;;18.38;100.00;100711.88;5033807;28;20033;-86
2023/10/06 10:24:47;;;;;;;2.05;0.43;;;;;;;18.41;100.00;100711.50;5015922;28;20040;-87
2023/10/06 10:27:16;;;;;;;3.22;0.75;;;;;;;18.49;100.00;100709.72;5045147;28;20500;-90
2023/10/06 10:29:43;;;;;;;4.10;0.65;;;;;;;18.50;100.00;100714.91;5014663;28;20408;-90
2023/10/06 10:32:14;;;;;;;7.10;0.80;;;;;;;18.58;100.00;100716.63;5030081;28;20040;-87
2023/10/06 10:35:15;;;;;;;1.30;0.60;;;;;;;18.62;100.00;100709.03;5014254;28;20036;-87
2023/10/06 10:38:02;;;;;;;2.25;0.60;;;;;;;18.65;100.00;100706.78;5050085;28;20435;-90
2023/10/06 10:40:46;;;;;;;3.20;0.70;;;;;;;18.71;100.00;100699.84;5052214;28;20029;-90
2023/10/06 10:43:14;;;;;;;2.30;1.35;;;;;;;18.73;100.00;100695.13;5032621;28;20037;-87
2023/10/06 10:45:44;;;;;;;2.10;0.82;;;;;;;18.84;100.00;100699.94;5034610;28;20040;-87
2023/10/06 10:48:15;;;;;;;1.60;0.40;;;;;;;18.96;100.00;100702.09;5032079;28;20097;-90
2023/10/06 10:50:53;;;;;;;4.97;0.70;;;;;;;19.06;100.00;100693.75;5024137;28;20493;-90
2023/10/06 10:53:20;;;;;;;1.90;0.52;;;;;;;19.04;100.00;100707.34;5043747;28;20036;-87
2023/10/06 10:55:47;;;;;;;2.50;0.45;;;;;;;19.12;100.00;100718.94;5054657;28;20211;-87
2023/10/06 10:58:44;;;;;;;2.88;0.57;;;;;;;19.15;100.00;100716.72;5018489;28;20029;-90
2023/10/06 11:01:43;;;;;;;3.58;0.60;;;;;;;19.15;100.00;100723.91;5000469;28;20055;-89
2023/10/06 11:06:55;;;;;;;1.92;0.50;;;;;;;19.16;100.00;100723.72;5036760;28;20064;-86
2023/10/06 11:09:40;;;;;;;1.83;0.40;;;;;;;19.25;100.00;100721.75;5045903;28;20025;-87
2023/10/06 11:12:19;;;;;;;1.63;0.80;;;;;;;19.25;100.00;100718.22;5026716;28;20033;-87
2023/10/06 11:14:46;;;;;;;1.83;0.40;;;;;;;19.23;100.00;100718.41;5043552;28;20040;-87
2023/10/06 11:17:12;;;;;;;1.35;0.43;;;;;;;19.25;100.00;100712.84;5022259;28;20040;-87
2023/10/06 11:19:39;;;;;;;1.67;0.70;;;;;;;19.29;100.00;100714.94;5059576;28;20043;-87
2023/10/06 11:22:19;;;;;;;1.20;0.32;;;;;;;19.39;100.00;100714.59;5031102;28;20476;-87
2023/10/06 11:24:47;;;;;;;2.28;0.50;;;;;;;19.38;100.00;100712.97;5056316;28;20033;-87
2023/10/06 11:27:23;;;;;;;4.85;0.40;;;;;;;19.37;100.00;100710.44;5030377;28;20042;-87
2023/10/06 11:29:54;;;;;;;1.52;0.20;;;;;;;19.31;100.00;100712.06;5018446;28;20033;-87
2023/10/06 11:32:21;;;;;;;0.90;0.35;;;;;;;19.32;100.00;100719.91;5011960;28;20075;-91
2023/10/06 11:34:51;;;;;;;1.85;0.47;;;;;;;19.40;100.00;100724.28;4983956;28;20085;-91
2023/10/06 11:37:18;;;;;;;3.03;0.50;;;;;;;19.52;100.00;100719.22;4990523;28;20049;-86
2023/10/06 11:39:45;;;;;;;4.70;0.82;;;;;;;19.58;100.00;100718.44;5004527;28;20041;-87
2023/10/06 11:42:24;;;;;;;0.88;0.43;;;;;;;19.66;100.00;100708.56;4992017;28;20030;-86
2023/10/06 11:44:53;;;;;;;0.50;0.32;;;;;;;19.70;100.00;100712.53;4988742;28;20050;-87
2023/10/06 11:47:21;;;;;;;3.70;0.73;;;;;;;19.79;100.00;100713.16;4988784;28;20079;-87
2023/10/06 11:50:01;;;;;;;2.40;0.50;;;;;;;19.92;100.00;100704.34;5010109;28;20064;-86
2023/10/06 11:52:27;;;;;;;1.38;0.75;;;;;;;19.89;100.00;100702.06;4992870;28;20548;-86
2023/10/06 11:54:55;;;;;;;1.95;0.40;;;;;;;19.92;100.00;100712.41;5001702;28;20029;-87
2023/10/06 11:57:47;;;;;;;1.52;0.32;;;;;;;19.98;100.00;100710.75;5026180;28;20116;-92